sensor_id;sensor_type;location;lat;lon;timestamp;pressure;altitude;pressure_sealevel;temperature;humidity
20079;BME280;10199;48.850;8.924;2024-01-15T00:51:30;96175.25;;;-3.02;88.66
20079;BME280;10199;48.850;8.924;2024-01-15T01:09:11;96172.13;;;-2.77;87.68
20079;BME280;10199;48.850;8.924;2024-01-15T02:18:04;96141.91;;;-2.76;87.27
20079;BME280;10199;48.850;8.924;2024-01-15T02:40:14;96127.50;;;-2.60;87.13
20079;BME280;10199;48.850;8.924;2024-01-15T02:48:20;96127.88;;;-2.54;86.69
20079;BME280;10199;48.850;8.924;2024-01-15T02:52:23;95850.72;;;-4.21;86.62
20079;BME280;10199;48.850;8.924;2024-01-15T03:12:10;96131.09;;;-2.23;85.31
20079;BME280;10199;48.850;8.924;2024-01-15T03:18:26;96142.53;;;-2.16;85.40
20079;BME280;10199;48.850;8.924;2024-01-15T03:26:58;96125.06;;;-2.14;85.48
20079;BME280;10199;48.850;8.924;2024-01-15T03:40:02;96130.91;;;-2.03;84.43
20079;BME280;10199;48.850;8.924;2024-01-15T04:49:14;96074.34;;;-1.80;83.54
20079;BME280;10199;48.850;8.924;2024-01-15T05:01:57;96078.69;;;-1.71;82.38
20079;BME280;10199;48.850;8.924;2024-01-15T05:14:21;96059.72;;;-1.71;82.42
20079;BME280;10199;48.850;8.924;2024-01-15T05:21:55;96052.03;;;-1.63;81.71
20079;BME280;10199;48.850;8.924;2024-01-15T05:49:53;96037.47;;;-1.64;81.87
20079;BME280;10199;48.850;8.924;2024-01-15T05:53:39;96046.28;;;-1.57;81.69
20079;BME280;10199;48.850;8.924;2024-01-15T06:04:08;95941.50;;;-2.17;81.59
20079;BME280;10199;48.850;8.924;2024-01-15T06:07:47;95964.31;;;-2.03;81.45
20079;BME280;10199;48.850;8.924;2024-01-15T06:10:18;96028.56;;;-1.62;82.06
20079;BME280;10199;48.850;8.924;2024-01-15T06:13:25;96013.09;;;-1.53;80.87
20079;BME280;10199;48.850;8.924;2024-01-15T06:16:19;96014.50;;;-1.59;81.43
20079;BME280;10199;48.850;8.924;2024-01-15T06:18:48;95836.78;;;-2.78;80.63
20079;BME280;10199;48.850;8.924;2024-01-15T06:21:26;96009.31;;;-1.59;81.25
20079;BME280;10199;48.850;8.924;2024-01-15T06:24:18;96008.94;;;-1.64;81.56
20079;BME280;10199;48.850;8.924;2024-01-15T06:27:06;96011.31;;;-1.53;81.13
20079;BME280;10199;48.850;8.924;2024-01-15T06:30:56;96018.44;;;-1.55;80.82
20079;BME280;10199;48.850;8.924;2024-01-15T06:34:14;96014.59;;;-1.51;80.47
20079;BME280;10199;48.850;8.924;2024-01-15T06:37:44;95807.47;;;-2.96;79.27
20079;BME280;10199;48.850;8.924;2024-01-15T06:41:41;95955.66;;;-1.94;79.31
20079;BME280;10199;48.850;8.924;2024-01-15T06:47:13;96018.38;;;-1.45;78.57
20079;BME280;10199;48.850;8.924;2024-01-15T06:49:41;95887.59;;;-2.32;78.69
20079;BME280;10199;48.850;8.924;2024-01-15T06:52:10;95818.22;;;-2.73;78.86
20079;BME280;10199;48.850;8.924;2024-01-15T07:07:10;96026.22;;;-1.55;79.48
20079;BME280;10199;48.850;8.924;2024-01-15T07:26:17;95997.63;;;-1.90;80.64
20079;BME280;10199;48.850;8.924;2024-01-15T07:29:17;96027.09;;;-1.64;81.36
20079;BME280;10199;48.850;8.924;2024-01-15T07:32:18;96021.53;;;-1.69;81.02
20079;BME280;10199;48.850;8.924;2024-01-15T07:34:54;96031.59;;;-1.66;80.78
20079;BME280;10199;48.850;8.924;2024-01-15T07:37:28;96027.25;;;-1.66;81.21
20079;BME280;10199;48.850;8.924;2024-01-15T07:39:57;95750.91;;;-3.36;80.82
20079;BME280;10199;48.850;8.924;2024-01-15T07:43:33;96035.25;;;-1.59;81.04
20079;BME280;10199;48.850;8.924;2024-01-15T07:46:06;96024.19;;;-1.61;81.85
20079;BME280;10199;48.850;8.924;2024-01-15T07:48:43;96022.94;;;-1.57;81.09
20079;BME280;10199;48.850;8.924;2024-01-15T07:51:17;95944.03;;;-2.08;80.99
20079;BME280;10199;48.850;8.924;2024-01-15T07:54:27;96017.09;;;-1.59;82.02
20079;BME280;10199;48.850;8.924;2024-01-15T07:57:00;96031.84;;;-1.59;81.77
20079;BME280;10199;48.850;8.924;2024-01-15T07:59:58;95971.06;;;-1.93;80.56
20079;BME280;10199;48.850;8.924;2024-01-15T08:20:48;95940.03;;;-1.84;78.68
20079;BME280;10199;48.850;8.924;2024-01-15T08:23:18;95991.31;;;-1.43;77.95
20079;BME280;10199;48.850;8.924;2024-01-15T08:26:27;96029.47;;;-1.17;77.54
20079;BME280;10199;48.850;8.924;2024-01-15T08:29:49;96035.41;;;-1.07;77.25
20079;BME280;10199;48.850;8.924;2024-01-15T08:32:19;95982.13;;;-1.37;77.00
20079;BME280;10199;48.850;8.924;2024-01-15T08:34:47;96028.56;;;-1.08;76.63
20079;BME280;10199;48.850;8.924;2024-01-15T08:37:20;96027.47;;;-1.06;76.22
20079;BME280;10199;48.850;8.924;2024-01-15T08:47:46;95972.03;;;-1.22;75.62
20079;BME280;10199;48.850;8.924;2024-01-15T08:51:36;96023.88;;;-0.87;76.17
20079;BME280;10199;48.850;8.924;2024-01-15T08:54:06;95821.09;;;-2.13;75.96
20079;BME280;10199;48.850;8.924;2024-01-15T08:56:56;96020.56;;;-0.97;76.91
20079;BME280;10199;48.850;8.924;2024-01-15T09:03:17;96001.88;;;-1.01;76.33
20079;BME280;10199;48.850;8.924;2024-01-15T09:06:04;95977.34;;;-1.06;76.51
20079;BME280;10199;48.850;8.924;2024-01-15T09:08:50;96011.19;;;-0.72;75.60
20079;BME280;10199;48.850;8.924;2024-01-15T09:11:20;95956.38;;;-1.13;75.73
20079;BME280;10199;48.850;8.924;2024-01-15T09:13:50;96009.34;;;-0.80;75.85
20079;BME280;10199;48.850;8.924;2024-01-15T09:16:50;95992.66;;;-0.77;75.20
20079;BME280;10199;48.850;8.924;2024-01-15T09:19:21;95914.69;;;-1.19;75.22
20079;BME280;10199;48.850;8.924;2024-01-15T09:21:50;95982.19;;;-0.68;75.46
20079;BME280;10199;48.850;8.924;2024-01-15T09:24:20;95986.25;;;-0.65;75.53
20079;BME280;10199;48.850;8.924;2024-01-15T09:26:56;95989.03;;;-0.58;75.92
20079;BME280;10199;48.850;8.924;2024-01-15T09:29:42;96001.06;;;-0.57;75.16
20079;BME280;10199;48.850;8.924;2024-01-15T09:32:15;96009.81;;;-0.58;74.54
20079;BME280;10199;48.850;8.924;2024-01-15T09:34:47;96012.88;;;-0.63;75.64
20079;BME280;10199;48.850;8.924;2024-01-15T09:37:18;96003.31;;;-0.62;75.05
20079;BME280;10199;48.850;8.924;2024-01-15T09:40:08;95986.72;;;-0.70;75.73
20079;BME280;10199;48.850;8.924;2024-01-15T09:42:44;96009.34;;;-0.54;76.09
20079;BME280;10199;48.850;8.924;2024-01-15T09:45:20;95960.25;;;-0.91;75.40
20079;BME280;10199;48.850;8.924;2024-01-15T09:48:14;95948.41;;;-0.93;75.59
20079;BME280;10199;48.850;8.924;2024-01-15T09:50:52;96003.09;;;-0.43;76.42
20079;BME280;10199;48.850;8.924;2024-01-15T09:53:32;95984.88;;;-0.51;75.55
20079;BME280;10199;48.850;8.924;2024-01-15T09:56:30;95991.34;;;-0.55;75.88
20079;BME280;10199;48.850;8.924;2024-01-15T09:59:03;95990.41;;;-0.46;76.63
20079;BME280;10199;48.850;8.924;2024-01-15T10:01:36;95990.91;;;-0.43;76.53
20079;BME280;10199;48.850;8.924;2024-01-15T10:04:15;95988.66;;;-0.38;76.51
20079;BME280;10199;48.850;8.924;2024-01-15T10:06:51;95949.72;;;-0.72;75.91
20079;BME280;10199;48.850;8.924;2024-01-15T10:09:20;95993.56;;;-0.35;76.44
20079;BME280;10199;48.850;8.924;2024-01-15T10:11:54;95989.94;;;-0.42;76.40
20079;BME280;10199;48.850;8.924;2024-01-15T10:14:42;95987.97;;;-0.48;76.11
20079;BME280;10199;48.850;8.924;2024-01-15T10:17:16;95990.09;;;-0.43;76.97
20079;BME280;10199;48.850;8.924;2024-01-15T10:19:48;95982.41;;;-0.53;76.54
20079;BME280;10199;48.850;8.924;2024-01-15T10:22:26;95982.56;;;-0.54;75.93
20079;BME280;10199;48.850;8.924;2024-01-15T10:25:18;95975.91;;;-0.57;76.16
20079;BME280;10199;48.850;8.924;2024-01-15T10:27:59;95969.75;;;-0.56;76.59
20079;BME280;10199;48.850;8.924;2024-01-15T10:30:33;95967.63;;;-0.60;76.66
20079;BME280;10199;48.850;8.924;2024-01-15T10:38:17;95954.16;;;-0.56;77.54
20079;BME280;10199;48.850;8.924;2024-01-15T10:40:58;95906.75;;;-0.92;77.74
20079;BME280;10199;48.850;8.924;2024-01-15T10:43:57;95944.41;;;-0.62;78.88
20079;BME280;10199;48.850;8.924;2024-01-15T10:46:46;95581.88;;;-2.90;78.50
20079;BME280;10199;48.850;8.924;2024-01-15T10:50:01;95872.16;;;-1.01;79.38
20079;BME280;10199;48.850;8.924;2024-01-15T10:52:30;95940.34;;;-0.65;81.13
20079;BME280;10199;48.850;8.924;2024-01-15T10:55:05;95944.09;;;-0.59;81.36
20079;BME280;10199;48.850;8.924;2024-01-15T10:57:40;95944.53;;;-0.89;84.78
20079;BME280;10199;48.850;8.924;2024-01-15T11:21:25;95861.38;;;-1.40;92.78
20079;BME280;10199;48.850;8.924;2024-01-15T11:24:01;95916.88;;;-1.07;92.11
20079;BME280;10199;48.850;8.924;2024-01-15T11:27:01;95815.06;;;-1.78;93.45
20079;BME280;10199;48.850;8.924;2024-01-15T11:30:13;95924.00;;;-1.09;93.44
20079;BME280;10199;48.850;8.924;2024-01-15T11:40:54;95671.06;;;-2.59;93.53
20079;BME280;10199;48.850;8.924;2024-01-15T11:55:45;95935.28;;;-1.18;96.75
20079;BME280;10199;48.850;8.924;2024-01-15T11:58:25;95931.56;;;-1.15;96.02
20079;BME280;10199;48.850;8.924;2024-01-15T12:05:28;95903.78;;;-1.23;95.23
20079;BME280;10199;48.850;8.924;2024-01-15T12:09:06;95864.59;;;-1.46;95.35
20079;BME280;10199;48.850;8.924;2024-01-15T12:21:42;95936.03;;;-0.82;94.67
20079;BME280;10199;48.850;8.924;2024-01-15T12:33:39;95928.81;;;-0.62;93.44
20079;BME280;10199;48.850;8.924;2024-01-15T12:36:12;95943.44;;;-0.61;93.05
20079;BME280;10199;48.850;8.924;2024-01-15T12:39:22;95924.75;;;-0.65;93.22
20079;BME280;10199;48.850;8.924;2024-01-15T12:42:56;95931.25;;;-0.60;92.94
20079;BME280;10199;48.850;8.924;2024-01-15T14:10:39;96003.09;;;-0.69;92.02
20079;BME280;10199;48.850;8.924;2024-01-15T14:36:55;96053.72;;;-1.26;96.87
20079;BME280;10199;48.850;8.924;2024-01-15T17:10:14;96260.34;;;-1.54;86.23
20079;BME280;10199;48.850;8.924;2024-01-15T17:27:30;96280.38;;;-1.47;84.88
20079;BME280;10199;48.850;8.924;2024-01-15T17:36:09;96302.22;;;-1.49;84.26
20079;BME280;10199;48.850;8.924;2024-01-15T17:40:22;96307.53;;;-1.51;84.50
20079;BME280;10199;48.850;8.924;2024-01-15T17:47:53;96305.53;;;-1.76;83.83
20079;BME280;10199;48.850;8.924;2024-01-15T17:51:24;96313.28;;;-1.76;83.29
20079;BME280;10199;48.850;8.924;2024-01-15T17:54:47;96310.97;;;-1.79;83.71
20079;BME280;10199;48.850;8.924;2024-01-15T17:57:56;96278.81;;;-2.06;83.47
20079;BME280;10199;48.850;8.924;2024-01-15T18:00:29;96324.09;;;-1.90;83.41
20079;BME280;10199;48.850;8.924;2024-01-15T18:03:36;96327.63;;;-1.92;82.76
20079;BME280;10199;48.850;8.924;2024-01-15T18:07:19;96331.84;;;-1.90;82.62
20079;BME280;10199;48.850;8.924;2024-01-15T18:09:52;96340.72;;;-2.03;82.80
20079;BME280;10199;48.850;8.924;2024-01-15T18:12:26;96283.88;;;-2.33;82.65
20079;BME280;10199;48.850;8.924;2024-01-15T18:15:23;96345.91;;;-1.93;82.83
20079;BME280;10199;48.850;8.924;2024-01-15T18:17:54;96214.75;;;-2.71;82.75
20079;BME280;10199;48.850;8.924;2024-01-15T18:23:22;96309.09;;;-2.06;81.93
20079;BME280;10199;48.850;8.924;2024-01-15T18:27:14;96364.16;;;-1.75;81.98
20079;BME280;10199;48.850;8.924;2024-01-15T18:30:01;96304.19;;;-2.09;82.02
20079;BME280;10199;48.850;8.924;2024-01-15T18:33:26;96358.97;;;-1.75;80.59
20079;BME280;10199;48.850;8.924;2024-01-15T18:36:11;96356.81;;;-1.70;81.28
20079;BME280;10199;48.850;8.924;2024-01-15T18:38:42;96362.97;;;-1.71;80.58
20079;BME280;10199;48.850;8.924;2024-01-15T18:41:22;96376.47;;;-1.68;80.62
20079;BME280;10199;48.850;8.924;2024-01-15T18:44:43;96323.81;;;-1.97;79.57
20079;BME280;10199;48.850;8.924;2024-01-15T18:47:14;96379.88;;;-1.57;79.06
20079;BME280;10199;48.850;8.924;2024-01-15T18:50:30;96363.09;;;-1.63;80.27
20079;BME280;10199;48.850;8.924;2024-01-15T18:53:41;96359.28;;;-1.59;79.26
20079;BME280;10199;48.850;8.924;2024-01-15T18:57:05;96279.78;;;-2.07;79.26
20079;BME280;10199;48.850;8.924;2024-01-15T18:59:42;96371.84;;;-1.64;79.52
20079;BME280;10199;48.850;8.924;2024-01-15T19:03:02;96311.28;;;-2.02;80.50
20079;BME280;10199;48.850;8.924;2024-01-15T19:05:56;96379.34;;;-1.61;79.85
20079;BME280;10199;48.850;8.924;2024-01-15T19:08:25;96341.94;;;-1.87;79.84
20079;BME280;10199;48.850;8.924;2024-01-15T19:11:11;96378.78;;;-1.65;80.59
20079;BME280;10199;48.850;8.924;2024-01-15T19:13:39;96330.91;;;-1.99;80.65
20079;BME280;10199;48.850;8.924;2024-01-15T19:16:35;96394.19;;;-1.63;80.33
20079;BME280;10199;48.850;8.924;2024-01-15T19:20:04;96395.28;;;-1.66;80.94
20079;BME280;10199;48.850;8.924;2024-01-15T19:22:54;96394.19;;;-1.63;79.82
20079;BME280;10199;48.850;8.924;2024-01-15T19:25:25;96339.34;;;-2.07;80.11
20079;BME280;10199;48.850;8.924;2024-01-15T19:28:19;96401.44;;;-1.57;80.31
20079;BME280;10199;48.850;8.924;2024-01-15T19:31:07;95702.13;;;-6.00;79.68
20079;BME280;10199;48.850;8.924;2024-01-15T19:37:29;96411.66;;;-1.55;78.89
20079;BME280;10199;48.850;8.924;2024-01-15T19:40:01;96407.28;;;-1.55;79.84
20079;BME280;10199;48.850;8.924;2024-01-15T19:42:52;96410.84;;;-1.56;78.11
20079;BME280;10199;48.850;8.924;2024-01-15T19:46:29;96363.34;;;-1.85;78.04
20079;BME280;10199;48.850;8.924;2024-01-15T19:50:01;96416.31;;;-1.59;78.62
20079;BME280;10199;48.850;8.924;2024-01-15T19:53:46;96421.22;;;-1.56;77.80
20079;BME280;10199;48.850;8.924;2024-01-15T19:56:30;96427.09;;;-1.54;77.79
20079;BME280;10199;48.850;8.924;2024-01-15T20:02:59;96441.53;;;-1.51;76.85
20079;BME280;10199;48.850;8.924;2024-01-15T20:05:31;96385.59;;;-1.83;77.15
20079;BME280;10199;48.850;8.924;2024-01-15T20:35:23;96483.03;;;-1.61;75.03
20079;BME280;10199;48.850;8.924;2024-01-15T20:39:54;96483.66;;;-1.78;76.26
20079;BME280;10199;48.850;8.924;2024-01-15T20:43:40;96491.44;;;-1.78;75.66
20079;BME280;10199;48.850;8.924;2024-01-15T20:54:53;96492.78;;;-1.84;77.60
20079;BME280;10199;48.850;8.924;2024-01-15T21:03:18;96494.28;;;-1.81;76.98
20079;BME280;10199;48.850;8.924;2024-01-15T21:08:30;96503.03;;;-1.82;77.15
20079;BME280;10199;48.850;8.924;2024-01-15T21:11:30;96505.88;;;-1.85;76.97
20079;BME280;10199;48.850;8.924;2024-01-15T21:14:01;96512.81;;;-1.86;77.38
20079;BME280;10199;48.850;8.924;2024-01-15T21:17:30;96505.88;;;-1.85;77.49
20079;BME280;10199;48.850;8.924;2024-01-15T21:25:12;96512.28;;;-1.89;78.41
20079;BME280;10199;48.850;8.924;2024-01-15T21:36:41;96520.19;;;-1.91;78.68
20079;BME280;10199;48.850;8.924;2024-01-15T21:39:10;96351.81;;;-3.00;78.70
20079;BME280;10199;48.850;8.924;2024-01-15T21:46:06;96484.84;;;-2.02;78.59
20079;BME280;10199;48.850;8.924;2024-01-15T21:52:06;96526.50;;;-1.74;78.36
20079;BME280;10199;48.850;8.924;2024-01-15T22:22:49;96559.28;;;-1.73;77.87
20079;BME280;10199;48.850;8.924;2024-01-15T22:43:00;96573.94;;;-1.83;78.70
20079;BME280;10199;48.850;8.924;2024-01-15T22:48:37;96591.69;;;-1.79;77.75
20079;BME280;10199;48.850;8.924;2024-01-15T22:51:45;96595.34;;;-1.81;79.03
20079;BME280;10199;48.850;8.924;2024-01-15T22:54:17;96611.03;;;-1.83;78.91
20079;BME280;10199;48.850;8.924;2024-01-15T22:56:48;96616.78;;;-1.79;79.03
20079;BME280;10199;48.850;8.924;2024-01-15T22:59:22;96603.13;;;-1.81;78.23
20079;BME280;10199;48.850;8.924;2024-01-15T23:02:31;96608.31;;;-1.81;78.87
20079;BME280;10199;48.850;8.924;2024-01-15T23:14:41;96613.75;;;-1.84;78.90
20079;BME280;10199;48.850;8.924;2024-01-15T23:24:14;96623.88;;;-1.81;78.85
20079;BME280;10199;48.850;8.924;2024-01-15T23:30:29;96626.81;;;-1.96;79.93
20079;BME280;10199;48.850;8.924;2024-01-15T23:33:28;96628.19;;;-1.92;78.58
20079;BME280;10199;48.850;8.924;2024-01-15T23:36:41;96635.00;;;-1.90;79.03
20079;BME280;10199;48.850;8.924;2024-01-15T23:40:05;96640.84;;;-1.98;79.87
20079;BME280;10199;48.850;8.924;2024-01-15T23:43:52;96635.22;;;-2.03;79.10
20079;BME280;10199;48.850;8.924;2024-01-15T23:56:30;96632.75;;;-2.05;79.63
